Khlong Yai, Thailand

9:31 AM ICT on August 02, 2014 (GMT +0700)
TRAT/KHAO SAMIN (VTBO) Elev 105 ft | 12.27 °N, 102.32 °E | Change Station

Current weather conditions updated 31 minutes ago

Mostly Cloudy
Mostly Cloudy
84 °F
Feels Like 96 °F
N
13
Wind Variable Wind from SW

Today is forecast to be Cooler than yesterday. Thunderstorms.

Today
High -- | Low -- °F
--% Chance of Precip.
Yesterday
High -- | Low -- °F
Precip. -- in
5:55 AM 6:33 PM
Waxing Crescent, 31% visible
Pressure 29.77 in
Visibility 3.7 miles
Clouds Scattered Clouds 2200 ft
Mostly Cloudy 12000 ft
Heat Index 96 °F
Dew Point 79 °F
Humidity 84%
Rainfall 0.00 in
Snow Depth Not available.
UV 4 out of 12
Pollen Not available.
Air Quality Not available.
Flu Activity Not available.
METAR VTBO 020200Z 23011KT 6000 SCT022 BKN120 29/26 Q1008

More Conditions Fewer Conditions

Pressure 29.77 in
Visibility 3.7 miles
Clouds Scattered Clouds 2200 ft
Mostly Cloudy 12000 ft
Heat Index 96 °F
Dew Point 79 °F
Humidity 84%
Rainfall 0.00 in
Snow Depth Not available.
UV 4 out of 12
Pollen Not available.
Air Quality Not available.
Flu Activity Not available.
METAR VTBO 020200Z 23011KT 6000 SCT022 BKN120 29/26 Q1008

More Conditions Fewer Conditions

10-Day Weather Forecast

Almanac

Astronomy

Aug. 02, 2014 Rise Set
Actual Time 5:55 AM ICT 6:33 PM ICT
Civil Twilight 5:33 AM ICT 6:55 PM ICT
Nautical Twilight 5:07 AM ICT 7:22 PM ICT
Astronomical Twilight 4:40 AM ICT 7:48 PM ICT
Moon 10:38 AM ICT 10:45 PM ICT
Length of Visible Light 13h 22m
Length of Day
12h 37m
Tomorrow will be 0m 29s shorter.
Waxing Crescent, 31% of the Moon is Illuminated
Aug 1
Waxing Crescent
Aug 3
First Quarter
Aug 10
Full
Aug 17
Last Quarter
Aug 25
New

Yesterday's Extremes

Country Highs Country Lows

Community

WunderPhotos

Upload Photos

1,739,807 photos uploaded!

Nearby

Snow Depth

Not available.

Earthquake Activity

City Distance Mag. Time & Date
No recent earthquake activity has been reported nearby.
Minimum magnitude displayed is 2.5.

Coastal Water Temperatures

Place Temperature
No Stations Reporting

Nearby Weather Stations

There are no personal weather stations in this area.